sensor_id;sensor_type;location;lat;lon;timestamp;temperature;humidity
11229;DHT22;5671;47.936;8.716;2023-06-22T00:01:19;17.80;82.40
11229;DHT22;5671;47.936;8.716;2023-06-22T00:03:48;17.80;81.40
11229;DHT22;5671;47.936;8.716;2023-06-22T00:06:15;17.80;82.10
11229;DHT22;5671;47.936;8.716;2023-06-22T00:08:42;17.70;82.20
11229;DHT22;5671;47.936;8.716;2023-06-22T00:11:09;17.70;82.00
11229;DHT22;5671;47.936;8.716;2023-06-22T00:13:37;17.60;82.10
11229;DHT22;5671;47.936;8.716;2023-06-22T00:16:04;17.60;82.30
11229;DHT22;5671;47.936;8.716;2023-06-22T00:18:31;17.50;81.50
11229;DHT22;5671;47.936;8.716;2023-06-22T00:20:59;17.50;82.80
11229;DHT22;5671;47.936;8.716;2023-06-22T00:23:26;17.40;82.20
11229;DHT22;5671;47.936;8.716;2023-06-22T00:25:53;17.40;82.60
11229;DHT22;5671;47.936;8.716;2023-06-22T00:28:20;17.40;82.40
11229;DHT22;5671;47.936;8.716;2023-06-22T00:30:49;17.40;82.90
11229;DHT22;5671;47.936;8.716;2023-06-22T00:33:15;17.30;82.90
11229;DHT22;5671;47.936;8.716;2023-06-22T00:35:42;17.30;82.80
11229;DHT22;5671;47.936;8.716;2023-06-22T00:38:09;17.30;82.80
11229;DHT22;5671;47.936;8.716;2023-06-22T00:40:36;17.30;82.70
11229;DHT22;5671;47.936;8.716;2023-06-22T00:43:04;17.20;83.60
11229;DHT22;5671;47.936;8.716;2023-06-22T00:45:31;17.20;82.70
11229;DHT22;5671;47.936;8.716;2023-06-22T00:47:59;17.20;83.00
11229;DHT22;5671;47.936;8.716;2023-06-22T00:50:28;17.20;83.40
11229;DHT22;5671;47.936;8.716;2023-06-22T00:53:03;17.20;82.90
11229;DHT22;5671;47.936;8.716;2023-06-22T00:55:33;17.10;83.50
11229;DHT22;5671;47.936;8.716;2023-06-22T00:58:02;17.10;82.40
11229;DHT22;5671;47.936;8.716;2023-06-22T01:00:31;17.10;83.10
11229;DHT22;5671;47.936;8.716;2023-06-22T01:03:01;17.10;83.40
11229;DHT22;5671;47.936;8.716;2023-06-22T01:05:28;17.10;83.00
11229;DHT22;5671;47.936;8.716;2023-06-22T01:08:04;17.00;83.20
11229;DHT22;5671;47.936;8.716;2023-06-22T01:10:37;17.00;83.10
11229;DHT22;5671;47.936;8.716;2023-06-22T01:13:10;16.90;83.60
11229;DHT22;5671;47.936;8.716;2023-06-22T01:15:44;16.90;83.60
11229;DHT22;5671;47.936;8.716;2023-06-22T01:18:14;16.90;83.70
11229;DHT22;5671;47.936;8.716;2023-06-22T01:20:41;16.90;83.90
11229;DHT22;5671;47.936;8.716;2023-06-22T01:23:19;16.90;84.10
11229;DHT22;5671;47.936;8.716;2023-06-22T01:25:53;16.80;84.70
11229;DHT22;5671;47.936;8.716;2023-06-22T01:31:19;16.80;84.20
11229;DHT22;5671;47.936;8.716;2023-06-22T01:33:49;16.80;84.40
11229;DHT22;5671;47.936;8.716;2023-06-22T01:36:17;16.80;84.50
11229;DHT22;5671;47.936;8.716;2023-06-22T01:38:45;16.80;84.50
11229;DHT22;5671;47.936;8.716;2023-06-22T01:41:13;16.80;84.80
11229;DHT22;5671;47.936;8.716;2023-06-22T01:43:41;16.80;84.50
11229;DHT22;5671;47.936;8.716;2023-06-22T01:46:10;16.80;84.70
11229;DHT22;5671;47.936;8.716;2023-06-22T01:48:38;16.80;85.30
11229;DHT22;5671;47.936;8.716;2023-06-22T01:51:05;16.70;85.10
11229;DHT22;5671;47.936;8.716;2023-06-22T01:53:32;16.80;84.70
11229;DHT22;5671;47.936;8.716;2023-06-22T01:55:59;16.80;84.80
11229;DHT22;5671;47.936;8.716;2023-06-22T01:58:28;16.80;84.60
11229;DHT22;5671;47.936;8.716;2023-06-22T02:00:59;16.70;83.90
11229;DHT22;5671;47.936;8.716;2023-06-22T02:03:32;16.70;83.70
11229;DHT22;5671;47.936;8.716;2023-06-22T02:06:05;16.80;83.90
11229;DHT22;5671;47.936;8.716;2023-06-22T02:08:40;16.70;84.30
11229;DHT22;5671;47.936;8.716;2023-06-22T02:11:09;16.70;84.70
11229;DHT22;5671;47.936;8.716;2023-06-22T02:13:37;16.70;84.70
11229;DHT22;5671;47.936;8.716;2023-06-22T02:16:08;16.70;84.70
11229;DHT22;5671;47.936;8.716;2023-06-22T02:18:35;16.70;84.70
11229;DHT22;5671;47.936;8.716;2023-06-22T02:21:03;16.70;84.70
11229;DHT22;5671;47.936;8.716;2023-06-22T02:23:30;16.70;85.10
11229;DHT22;5671;47.936;8.716;2023-06-22T02:25:58;16.60;84.90
11229;DHT22;5671;47.936;8.716;2023-06-22T02:28:25;16.60;85.10
11229;DHT22;5671;47.936;8.716;2023-06-22T02:30:52;16.60;84.70
11229;DHT22;5671;47.936;8.716;2023-06-22T02:33:18;16.60;84.60
11229;DHT22;5671;47.936;8.716;2023-06-22T02:35:45;16.60;84.90
11229;DHT22;5671;47.936;8.716;2023-06-22T02:38:15;16.60;84.80
11229;DHT22;5671;47.936;8.716;2023-06-22T02:40:43;16.60;85.10
11229;DHT22;5671;47.936;8.716;2023-06-22T02:43:09;16.60;85.20
11229;DHT22;5671;47.936;8.716;2023-06-22T02:45:36;16.60;85.30
11229;DHT22;5671;47.936;8.716;2023-06-22T02:48:04;16.60;85.30
11229;DHT22;5671;47.936;8.716;2023-06-22T02:50:31;16.60;85.20
11229;DHT22;5671;47.936;8.716;2023-06-22T02:52:58;16.60;85.00
11229;DHT22;5671;47.936;8.716;2023-06-22T02:55:26;16.50;85.20
11229;DHT22;5671;47.936;8.716;2023-06-22T02:57:53;16.50;84.90
11229;DHT22;5671;47.936;8.716;2023-06-22T03:00:20;16.50;85.30
11229;DHT22;5671;47.936;8.716;2023-06-22T03:02:48;16.50;85.40
11229;DHT22;5671;47.936;8.716;2023-06-22T03:05:15;16.50;85.30
11229;DHT22;5671;47.936;8.716;2023-06-22T03:07:44;16.50;85.10
11229;DHT22;5671;47.936;8.716;2023-06-22T03:10:13;16.50;84.30
11229;DHT22;5671;47.936;8.716;2023-06-22T03:12:42;16.40;84.30
11229;DHT22;5671;47.936;8.716;2023-06-22T03:15:11;16.40;84.30
11229;DHT22;5671;47.936;8.716;2023-06-22T03:17:38;16.40;84.40
11229;DHT22;5671;47.936;8.716;2023-06-22T03:20:07;16.40;83.60
11229;DHT22;5671;47.936;8.716;2023-06-22T03:22:36;16.30;83.80
11229;DHT22;5671;47.936;8.716;2023-06-22T03:25:03;16.30;83.50
11229;DHT22;5671;47.936;8.716;2023-06-22T03:27:35;16.30;83.70
11229;DHT22;5671;47.936;8.716;2023-06-22T03:30:04;16.20;83.20
11229;DHT22;5671;47.936;8.716;2023-06-22T03:32:31;16.20;83.10
11229;DHT22;5671;47.936;8.716;2023-06-22T03:34:57;16.20;83.00
11229;DHT22;5671;47.936;8.716;2023-06-22T03:37:25;16.10;83.60
11229;DHT22;5671;47.936;8.716;2023-06-22T03:39:52;16.10;83.20
11229;DHT22;5671;47.936;8.716;2023-06-22T03:42:19;16.00;83.40
11229;DHT22;5671;47.936;8.716;2023-06-22T03:44:45;16.00;83.40
11229;DHT22;5671;47.936;8.716;2023-06-22T03:47:14;15.90;83.50
11229;DHT22;5671;47.936;8.716;2023-06-22T03:49:40;15.90;83.40
11229;DHT22;5671;47.936;8.716;2023-06-22T03:52:07;15.90;83.50
11229;DHT22;5671;47.936;8.716;2023-06-22T03:54:34;15.80;83.90
11229;DHT22;5671;47.936;8.716;2023-06-22T03:57:01;15.70;84.70
11229;DHT22;5671;47.936;8.716;2023-06-22T03:59:28;15.70;84.30
11229;DHT22;5671;47.936;8.716;2023-06-22T04:01:55;15.70;84.30
11229;DHT22;5671;47.936;8.716;2023-06-22T04:04:23;15.70;84.10
11229;DHT22;5671;47.936;8.716;2023-06-22T04:06:50;15.70;84.90
11229;DHT22;5671;47.936;8.716;2023-06-22T04:09:17;15.60;84.70
11229;DHT22;5671;47.936;8.716;2023-06-22T04:11:44;15.60;85.60
11229;DHT22;5671;47.936;8.716;2023-06-22T04:14:10;15.60;86.20
11229;DHT22;5671;47.936;8.716;2023-06-22T04:16:37;15.60;85.30
11229;DHT22;5671;47.936;8.716;2023-06-22T04:19:04;15.60;85.80
11229;DHT22;5671;47.936;8.716;2023-06-22T04:21:32;15.60;86.20
11229;DHT22;5671;47.936;8.716;2023-06-22T04:23:59;15.60;85.80
11229;DHT22;5671;47.936;8.716;2023-06-22T04:26:26;15.60;85.40
11229;DHT22;5671;47.936;8.716;2023-06-22T04:28:52;15.60;85.90
11229;DHT22;5671;47.936;8.716;2023-06-22T04:31:21;15.70;85.90
11229;DHT22;5671;47.936;8.716;2023-06-22T04:33:57;15.60;84.90
11229;DHT22;5671;47.936;8.716;2023-06-22T04:36:33;15.70;85.60
11229;DHT22;5671;47.936;8.716;2023-06-22T04:39:04;15.70;85.80
11229;DHT22;5671;47.936;8.716;2023-06-22T04:41:31;15.70;85.00
11229;DHT22;5671;47.936;8.716;2023-06-22T04:44:08;15.70;85.60
11229;DHT22;5671;47.936;8.716;2023-06-22T04:46:35;15.70;86.30
11229;DHT22;5671;47.936;8.716;2023-06-22T04:49:04;15.80;85.80
11229;DHT22;5671;47.936;8.716;2023-06-22T04:51:39;15.80;86.20
11229;DHT22;5671;47.936;8.716;2023-06-22T04:54:06;15.80;86.50
11229;DHT22;5671;47.936;8.716;2023-06-22T04:56:34;15.80;86.50
11229;DHT22;5671;47.936;8.716;2023-06-22T04:59:01;15.90;86.70
11229;DHT22;5671;47.936;8.716;2023-06-22T05:01:28;15.90;86.80
11229;DHT22;5671;47.936;8.716;2023-06-22T05:03:56;15.90;86.90
11229;DHT22;5671;47.936;8.716;2023-06-22T05:06:26;16.00;86.30
11229;DHT22;5671;47.936;8.716;2023-06-22T05:08:56;16.00;86.30
11229;DHT22;5671;47.936;8.716;2023-06-22T05:11:24;16.00;86.60
11229;DHT22;5671;47.936;8.716;2023-06-22T05:13:51;16.10;86.40
11229;DHT22;5671;47.936;8.716;2023-06-22T05:16:19;16.10;86.60
11229;DHT22;5671;47.936;8.716;2023-06-22T05:18:50;16.20;87.00
11229;DHT22;5671;47.936;8.716;2023-06-22T05:21:17;16.20;86.90
11229;DHT22;5671;47.936;8.716;2023-06-22T05:23:44;16.20;86.50
11229;DHT22;5671;47.936;8.716;2023-06-22T05:26:12;16.30;86.30
11229;DHT22;5671;47.936;8.716;2023-06-22T05:28:39;16.40;86.50
11229;DHT22;5671;47.936;8.716;2023-06-22T05:31:06;16.40;86.70
11229;DHT22;5671;47.936;8.716;2023-06-22T05:33:33;16.50;85.80
11229;DHT22;5671;47.936;8.716;2023-06-22T05:35:59;16.60;86.70
11229;DHT22;5671;47.936;8.716;2023-06-22T05:38:26;16.60;86.90
11229;DHT22;5671;47.936;8.716;2023-06-22T05:40:53;16.70;86.60
11229;DHT22;5671;47.936;8.716;2023-06-22T05:43:21;16.80;87.30
11229;DHT22;5671;47.936;8.716;2023-06-22T05:45:48;16.90;87.80
11229;DHT22;5671;47.936;8.716;2023-06-22T05:48:15;17.00;87.90
11229;DHT22;5671;47.936;8.716;2023-06-22T05:50:49;17.10;87.30
11229;DHT22;5671;47.936;8.716;2023-06-22T05:53:16;17.10;87.10
11229;DHT22;5671;47.936;8.716;2023-06-22T05:55:43;17.30;87.20
11229;DHT22;5671;47.936;8.716;2023-06-22T05:58:10;17.40;87.10
11229;DHT22;5671;47.936;8.716;2023-06-22T06:00:40;17.50;85.90
11229;DHT22;5671;47.936;8.716;2023-06-22T06:03:07;17.60;85.60
11229;DHT22;5671;47.936;8.716;2023-06-22T06:05:34;17.70;86.00
11229;DHT22;5671;47.936;8.716;2023-06-22T06:08:02;17.80;86.00
11229;DHT22;5671;47.936;8.716;2023-06-22T06:10:30;17.90;85.00
11229;DHT22;5671;47.936;8.716;2023-06-22T06:12:58;18.10;84.30
11229;DHT22;5671;47.936;8.716;2023-06-22T06:15:27;18.20;83.20
11229;DHT22;5671;47.936;8.716;2023-06-22T06:17:55;18.30;83.70
11229;DHT22;5671;47.936;8.716;2023-06-22T06:20:23;18.40;83.80
11229;DHT22;5671;47.936;8.716;2023-06-22T06:22:50;18.50;83.70
11229;DHT22;5671;47.936;8.716;2023-06-22T06:25:17;18.70;81.30
11229;DHT22;5671;47.936;8.716;2023-06-22T06:27:46;18.80;79.70
11229;DHT22;5671;47.936;8.716;2023-06-22T06:30:14;18.90;79.90
11229;DHT22;5671;47.936;8.716;2023-06-22T06:32:41;18.90;80.10
11229;DHT22;5671;47.936;8.716;2023-06-22T06:35:11;19.00;79.90
11229;DHT22;5671;47.936;8.716;2023-06-22T06:37:40;19.10;79.40
11229;DHT22;5671;47.936;8.716;2023-06-22T06:40:09;19.30;79.50
11229;DHT22;5671;47.936;8.716;2023-06-22T06:42:37;19.40;77.40
11229;DHT22;5671;47.936;8.716;2023-06-22T06:45:06;19.40;78.40
11229;DHT22;5671;47.936;8.716;2023-06-22T06:47:33;19.50;79.30
11229;DHT22;5671;47.936;8.716;2023-06-22T06:50:00;19.60;78.70
11229;DHT22;5671;47.936;8.716;2023-06-22T06:52:28;19.80;77.20
11229;DHT22;5671;47.936;8.716;2023-06-22T06:54:55;19.90;76.90
11229;DHT22;5671;47.936;8.716;2023-06-22T06:57:22;20.00;75.90
11229;DHT22;5671;47.936;8.716;2023-06-22T06:59:49;20.10;76.10
11229;DHT22;5671;47.936;8.716;2023-06-22T07:02:16;20.20;75.20
11229;DHT22;5671;47.936;8.716;2023-06-22T07:04:43;20.30;75.40
11229;DHT22;5671;47.936;8.716;2023-06-22T07:07:10;20.40;76.70
11229;DHT22;5671;47.936;8.716;2023-06-22T07:09:38;20.50;75.70
11229;DHT22;5671;47.936;8.716;2023-06-22T07:12:06;20.60;76.40
11229;DHT22;5671;47.936;8.716;2023-06-22T07:14:33;20.70;75.10
11229;DHT22;5671;47.936;8.716;2023-06-22T07:16:59;20.70;75.60
11229;DHT22;5671;47.936;8.716;2023-06-22T07:19:26;20.90;74.10
11229;DHT22;5671;47.936;8.716;2023-06-22T07:21:53;21.00;73.30
11229;DHT22;5671;47.936;8.716;2023-06-22T07:24:20;21.00;73.90
11229;DHT22;5671;47.936;8.716;2023-06-22T07:26:49;21.10;73.30
11229;DHT22;5671;47.936;8.716;2023-06-22T07:29:17;21.30;74.80
11229;DHT22;5671;47.936;8.716;2023-06-22T07:31:44;21.40;74.40
11229;DHT22;5671;47.936;8.716;2023-06-22T07:34:11;21.60;74.10
11229;DHT22;5671;47.936;8.716;2023-06-22T07:36:37;21.70;73.40
11229;DHT22;5671;47.936;8.716;2023-06-22T07:39:05;21.80;74.10
11229;DHT22;5671;47.936;8.716;2023-06-22T07:41:31;21.90;71.90
11229;DHT22;5671;47.936;8.716;2023-06-22T07:44:00;22.00;71.50
11229;DHT22;5671;47.936;8.716;2023-06-22T07:46:26;22.00;71.80
11229;DHT22;5671;47.936;8.716;2023-06-22T07:48:55;22.10;70.10
11229;DHT22;5671;47.936;8.716;2023-06-22T07:51:22;22.10;71.60
11229;DHT22;5671;47.936;8.716;2023-06-22T07:53:49;22.20;72.90
11229;DHT22;5671;47.936;8.716;2023-06-22T07:56:16;22.20;70.80
11229;DHT22;5671;47.936;8.716;2023-06-22T07:58:44;22.30;71.50
11229;DHT22;5671;47.936;8.716;2023-06-22T08:01:13;22.30;71.00
11229;DHT22;5671;47.936;8.716;2023-06-22T08:03:46;22.30;70.60
11229;DHT22;5671;47.936;8.716;2023-06-22T08:06:13;22.30;72.10
11229;DHT22;5671;47.936;8.716;2023-06-22T08:08:42;22.30;73.20
11229;DHT22;5671;47.936;8.716;2023-06-22T08:11:09;22.40;73.50
11229;DHT22;5671;47.936;8.716;2023-06-22T08:13:36;22.50;73.80
11229;DHT22;5671;47.936;8.716;2023-06-22T08:16:03;22.50;72.90
11229;DHT22;5671;47.936;8.716;2023-06-22T08:18:31;22.50;72.30
11229;DHT22;5671;47.936;8.716;2023-06-22T08:20:58;22.60;72.90
11229;DHT22;5671;47.936;8.716;2023-06-22T08:23:25;22.60;72.30
11229;DHT22;5671;47.936;8.716;2023-06-22T08:25:53;22.70;72.60
11229;DHT22;5671;47.936;8.716;2023-06-22T08:28:20;22.80;72.70
11229;DHT22;5671;47.936;8.716;2023-06-22T08:30:47;22.80;70.20
11229;DHT22;5671;47.936;8.716;2023-06-22T08:33:14;22.90;70.50
11229;DHT22;5671;47.936;8.716;2023-06-22T08:35:42;22.90;70.10
11229;DHT22;5671;47.936;8.716;2023-06-22T08:38:09;22.90;70.40
11229;DHT22;5671;47.936;8.716;2023-06-22T08:40:36;23.00;70.90
11229;DHT22;5671;47.936;8.716;2023-06-22T08:43:03;23.10;70.50
11229;DHT22;5671;47.936;8.716;2023-06-22T08:45:30;23.10;70.00
11229;DHT22;5671;47.936;8.716;2023-06-22T08:47:57;23.20;69.70
11229;DHT22;5671;47.936;8.716;2023-06-22T08:50:24;23.30;69.10
11229;DHT22;5671;47.936;8.716;2023-06-22T08:52:53;23.40;68.40
11229;DHT22;5671;47.936;8.716;2023-06-22T08:55:20;23.50;69.20
11229;DHT22;5671;47.936;8.716;2023-06-22T08:57:49;23.70;67.80
11229;DHT22;5671;47.936;8.716;2023-06-22T09:00:17;23.80;67.60
11229;DHT22;5671;47.936;8.716;2023-06-22T09:02:45;23.90;68.70
11229;DHT22;5671;47.936;8.716;2023-06-22T09:05:13;24.00;64.10
11229;DHT22;5671;47.936;8.716;2023-06-22T09:07:40;24.10;65.00
11229;DHT22;5671;47.936;8.716;2023-06-22T09:10:09;24.30;65.10
11229;DHT22;5671;47.936;8.716;2023-06-22T09:12:35;24.30;63.70
11229;DHT22;5671;47.936;8.716;2023-06-22T09:15:15;24.40;65.10
11229;DHT22;5671;47.936;8.716;2023-06-22T09:17:42;24.50;65.50
11229;DHT22;5671;47.936;8.716;2023-06-22T09:20:11;24.60;65.00
11229;DHT22;5671;47.936;8.716;2023-06-22T09:22:38;24.70;64.90
11229;DHT22;5671;47.936;8.716;2023-06-22T09:25:07;24.70;64.40
11229;DHT22;5671;47.936;8.716;2023-06-22T09:27:34;24.80;64.40
11229;DHT22;5671;47.936;8.716;2023-06-22T09:30:01;25.00;64.40
11229;DHT22;5671;47.936;8.716;2023-06-22T09:32:29;25.00;63.30
11229;DHT22;5671;47.936;8.716;2023-06-22T09:34:56;25.20;63.60
11229;DHT22;5671;47.936;8.716;2023-06-22T09:37:22;25.30;63.80
11229;DHT22;5671;47.936;8.716;2023-06-22T09:39:49;25.40;64.50
11229;DHT22;5671;47.936;8.716;2023-06-22T09:42:17;25.60;63.60
11229;DHT22;5671;47.936;8.716;2023-06-22T09:44:44;25.70;62.90
11229;DHT22;5671;47.936;8.716;2023-06-22T09:47:11;25.70;63.50
11229;DHT22;5671;47.936;8.716;2023-06-22T09:49:38;25.80;64.30
11229;DHT22;5671;47.936;8.716;2023-06-22T09:52:05;25.80;64.60
11229;DHT22;5671;47.936;8.716;2023-06-22T09:54:32;25.80;65.30
11229;DHT22;5671;47.936;8.716;2023-06-22T09:56:59;25.90;64.30
11229;DHT22;5671;47.936;8.716;2023-06-22T09:59:29;25.90;64.00
11229;DHT22;5671;47.936;8.716;2023-06-22T10:01:56;25.90;63.10
11229;DHT22;5671;47.936;8.716;2023-06-22T10:04:23;25.80;63.60
11229;DHT22;5671;47.936;8.716;2023-06-22T10:06:51;25.80;63.80
11229;DHT22;5671;47.936;8.716;2023-06-22T10:09:18;25.70;64.10
11229;DHT22;5671;47.936;8.716;2023-06-22T10:11:44;25.70;65.00
11229;DHT22;5671;47.936;8.716;2023-06-22T10:14:11;25.60;64.50
11229;DHT22;5671;47.936;8.716;2023-06-22T10:16:39;25.60;65.70
11229;DHT22;5671;47.936;8.716;2023-06-22T10:19:06;25.50;65.30
11229;DHT22;5671;47.936;8.716;2023-06-22T10:21:33;25.40;65.40
11229;DHT22;5671;47.936;8.716;2023-06-22T10:24:00;25.40;66.60
11229;DHT22;5671;47.936;8.716;2023-06-22T10:26:31;25.40;65.20
11229;DHT22;5671;47.936;8.716;2023-06-22T10:28:58;25.40;66.80
11229;DHT22;5671;47.936;8.716;2023-06-22T10:31:25;25.50;66.50
11229;DHT22;5671;47.936;8.716;2023-06-22T10:33:54;25.50;65.10
11229;DHT22;5671;47.936;8.716;2023-06-22T10:36:22;25.50;65.40
11229;DHT22;5671;47.936;8.716;2023-06-22T10:38:49;25.60;66.40
11229;DHT22;5671;47.936;8.716;2023-06-22T10:41:16;25.50;65.80
11229;DHT22;5671;47.936;8.716;2023-06-22T10:43:43;25.60;66.20
11229;DHT22;5671;47.936;8.716;2023-06-22T10:46:10;25.50;66.00
11229;DHT22;5671;47.936;8.716;2023-06-22T10:48:37;25.50;65.70
11229;DHT22;5671;47.936;8.716;2023-06-22T10:51:05;25.50;65.60
11229;DHT22;5671;47.936;8.716;2023-06-22T10:53:32;25.50;66.20
11229;DHT22;5671;47.936;8.716;2023-06-22T10:56:06;25.40;65.30
11229;DHT22;5671;47.936;8.716;2023-06-22T10:58:33;25.40;65.90
11229;DHT22;5671;47.936;8.716;2023-06-22T11:01:00;25.50;65.40
11229;DHT22;5671;47.936;8.716;2023-06-22T11:03:31;25.60;65.70
11229;DHT22;5671;47.936;8.716;2023-06-22T11:05:57;25.80;64.20
11229;DHT22;5671;47.936;8.716;2023-06-22T11:08:26;25.90;65.00
11229;DHT22;5671;47.936;8.716;2023-06-22T11:10:52;25.90;65.40
11229;DHT22;5671;47.936;8.716;2023-06-22T11:13:19;25.90;64.70
11229;DHT22;5671;47.936;8.716;2023-06-22T11:15:46;26.00;64.90
11229;DHT22;5671;47.936;8.716;2023-06-22T11:18:13;26.00;63.80
11229;DHT22;5671;47.936;8.716;2023-06-22T11:20:40;26.00;64.90
11229;DHT22;5671;47.936;8.716;2023-06-22T11:23:07;26.10;63.70
11229;DHT22;5671;47.936;8.716;2023-06-22T11:25:35;26.10;63.60
11229;DHT22;5671;47.936;8.716;2023-06-22T11:28:04;26.10;63.90
11229;DHT22;5671;47.936;8.716;2023-06-22T11:30:31;26.00;63.90
11229;DHT22;5671;47.936;8.716;2023-06-22T11:32:59;26.00;63.80
11229;DHT22;5671;47.936;8.716;2023-06-22T11:35:26;25.90;63.70
11229;DHT22;5671;47.936;8.716;2023-06-22T11:37:53;25.90;64.10
11229;DHT22;5671;47.936;8.716;2023-06-22T11:40:21;25.90;64.60
11229;DHT22;5671;47.936;8.716;2023-06-22T11:42:49;25.90;67.10
11229;DHT22;5671;47.936;8.716;2023-06-22T11:45:16;25.80;64.90
11229;DHT22;5671;47.936;8.716;2023-06-22T11:47:44;25.80;64.80
11229;DHT22;5671;47.936;8.716;2023-06-22T11:50:11;25.70;66.70
11229;DHT22;5671;47.936;8.716;2023-06-22T11:52:37;25.60;67.20
11229;DHT22;5671;47.936;8.716;2023-06-22T11:55:05;25.60;66.10
11229;DHT22;5671;47.936;8.716;2023-06-22T11:57:33;25.50;66.60
11229;DHT22;5671;47.936;8.716;2023-06-22T12:00:02;25.40;66.80
11229;DHT22;5671;47.936;8.716;2023-06-22T12:02:36;25.40;66.80
11229;DHT22;5671;47.936;8.716;2023-06-22T12:05:03;25.40;67.20
11229;DHT22;5671;47.936;8.716;2023-06-22T12:07:30;25.40;67.80
11229;DHT22;5671;47.936;8.716;2023-06-22T12:09:57;25.40;67.40
11229;DHT22;5671;47.936;8.716;2023-06-22T12:12:24;25.40;67.20
11229;DHT22;5671;47.936;8.716;2023-06-22T12:14:51;25.50;66.40
11229;DHT22;5671;47.936;8.716;2023-06-22T12:17:19;25.50;68.20
11229;DHT22;5671;47.936;8.716;2023-06-22T12:19:46;25.60;66.90
11229;DHT22;5671;47.936;8.716;2023-06-22T12:22:13;25.70;67.20
11229;DHT22;5671;47.936;8.716;2023-06-22T12:24:39;25.90;66.30
11229;DHT22;5671;47.936;8.716;2023-06-22T12:27:06;26.20;66.60
11229;DHT22;5671;47.936;8.716;2023-06-22T12:29:33;26.40;64.30
11229;DHT22;5671;47.936;8.716;2023-06-22T12:32:00;26.70;65.10
11229;DHT22;5671;47.936;8.716;2023-06-22T12:34:28;26.80;64.00
11229;DHT22;5671;47.936;8.716;2023-06-22T12:36:55;26.70;63.50
11229;DHT22;5671;47.936;8.716;2023-06-22T12:39:22;26.80;62.90
11229;DHT22;5671;47.936;8.716;2023-06-22T12:41:49;26.80;62.20
11229;DHT22;5671;47.936;8.716;2023-06-22T12:44:16;26.80;63.30
11229;DHT22;5671;47.936;8.716;2023-06-22T12:46:43;26.80;62.80
11229;DHT22;5671;47.936;8.716;2023-06-22T12:49:10;26.80;61.00
11229;DHT22;5671;47.936;8.716;2023-06-22T12:51:41;26.70;58.40
11229;DHT22;5671;47.936;8.716;2023-06-22T12:54:08;26.70;59.10
11229;DHT22;5671;47.936;8.716;2023-06-22T12:56:35;26.60;59.50
11229;DHT22;5671;47.936;8.716;2023-06-22T12:59:03;26.50;59.00
11229;DHT22;5671;47.936;8.716;2023-06-22T13:01:30;26.60;61.80
11229;DHT22;5671;47.936;8.716;2023-06-22T13:03:57;26.60;59.40
11229;DHT22;5671;47.936;8.716;2023-06-22T13:06:24;26.80;57.90
11229;DHT22;5671;47.936;8.716;2023-06-22T13:08:52;26.90;57.70
11229;DHT22;5671;47.936;8.716;2023-06-22T13:11:19;26.90;54.70
11229;DHT22;5671;47.936;8.716;2023-06-22T13:13:46;26.80;56.70
11229;DHT22;5671;47.936;8.716;2023-06-22T13:16:13;26.70;58.40
11229;DHT22;5671;47.936;8.716;2023-06-22T13:18:40;26.60;53.10
11229;DHT22;5671;47.936;8.716;2023-06-22T13:21:07;26.50;54.10
11229;DHT22;5671;47.936;8.716;2023-06-22T13:23:34;26.50;53.80
11229;DHT22;5671;47.936;8.716;2023-06-22T13:26:02;26.40;53.80
11229;DHT22;5671;47.936;8.716;2023-06-22T13:28:29;26.30;54.40
11229;DHT22;5671;47.936;8.716;2023-06-22T13:30:58;26.30;54.50
11229;DHT22;5671;47.936;8.716;2023-06-22T13:33:25;26.20;55.50
11229;DHT22;5671;47.936;8.716;2023-06-22T13:35:52;26.20;54.30
11229;DHT22;5671;47.936;8.716;2023-06-22T13:38:19;26.20;54.90
11229;DHT22;5671;47.936;8.716;2023-06-22T13:40:45;26.20;59.40
11229;DHT22;5671;47.936;8.716;2023-06-22T13:43:15;26.30;59.00
11229;DHT22;5671;47.936;8.716;2023-06-22T13:45:42;26.40;55.20
11229;DHT22;5671;47.936;8.716;2023-06-22T13:48:09;26.50;53.60
11229;DHT22;5671;47.936;8.716;2023-06-22T13:50:36;26.50;53.60
11229;DHT22;5671;47.936;8.716;2023-06-22T13:53:03;26.60;54.10
11229;DHT22;5671;47.936;8.716;2023-06-22T13:55:30;26.60;49.60
11229;DHT22;5671;47.936;8.716;2023-06-22T13:57:56;26.60;50.00
11229;DHT22;5671;47.936;8.716;2023-06-22T14:00:25;26.50;48.60
11229;DHT22;5671;47.936;8.716;2023-06-22T14:02:53;26.30;47.00
11229;DHT22;5671;47.936;8.716;2023-06-22T14:05:20;26.20;47.70
11229;DHT22;5671;47.936;8.716;2023-06-22T14:07:47;26.00;47.20
11229;DHT22;5671;47.936;8.716;2023-06-22T14:10:14;26.00;47.70
11229;DHT22;5671;47.936;8.716;2023-06-22T14:12:40;25.90;49.00
11229;DHT22;5671;47.936;8.716;2023-06-22T14:15:10;25.80;50.90
11229;DHT22;5671;47.936;8.716;2023-06-22T14:17:38;25.80;50.80
11229;DHT22;5671;47.936;8.716;2023-06-22T14:20:06;25.90;50.20
11229;DHT22;5671;47.936;8.716;2023-06-22T14:22:34;25.90;51.20
11229;DHT22;5671;47.936;8.716;2023-06-22T14:25:05;25.90;50.70
11229;DHT22;5671;47.936;8.716;2023-06-22T14:27:32;25.90;51.20
11229;DHT22;5671;47.936;8.716;2023-06-22T14:29:58;25.90;50.90
11229;DHT22;5671;47.936;8.716;2023-06-22T14:32:27;26.00;52.00
11229;DHT22;5671;47.936;8.716;2023-06-22T14:34:56;25.90;51.70
11229;DHT22;5671;47.936;8.716;2023-06-22T14:37:23;25.90;50.70
11229;DHT22;5671;47.936;8.716;2023-06-22T14:39:50;25.80;51.30
11229;DHT22;5671;47.936;8.716;2023-06-22T14:42:17;25.80;50.60
11229;DHT22;5671;47.936;8.716;2023-06-22T14:44:44;25.70;50.80
11229;DHT22;5671;47.936;8.716;2023-06-22T14:47:11;25.70;52.30
11229;DHT22;5671;47.936;8.716;2023-06-22T14:49:37;25.60;52.40
11229;DHT22;5671;47.936;8.716;2023-06-22T14:52:06;25.60;52.60
11229;DHT22;5671;47.936;8.716;2023-06-22T14:54:34;25.50;52.70
11229;DHT22;5671;47.936;8.716;2023-06-22T14:57:00;25.40;52.70
11229;DHT22;5671;47.936;8.716;2023-06-22T14:59:27;25.30;53.00
11229;DHT22;5671;47.936;8.716;2023-06-22T15:01:54;25.30;53.10
11229;DHT22;5671;47.936;8.716;2023-06-22T15:04:21;25.20;53.30
11229;DHT22;5671;47.936;8.716;2023-06-22T15:06:47;25.10;53.50
11229;DHT22;5671;47.936;8.716;2023-06-22T15:09:16;25.00;54.00
11229;DHT22;5671;47.936;8.716;2023-06-22T15:11:42;25.00;53.40
11229;DHT22;5671;47.936;8.716;2023-06-22T15:14:09;24.90;53.10
11229;DHT22;5671;47.936;8.716;2023-06-22T15:16:36;24.80;53.10
11229;DHT22;5671;47.936;8.716;2023-06-22T15:19:03;24.70;53.30
11229;DHT22;5671;47.936;8.716;2023-06-22T15:21:31;24.60;54.90
11229;DHT22;5671;47.936;8.716;2023-06-22T15:23:58;24.60;56.00
11229;DHT22;5671;47.936;8.716;2023-06-22T15:26:26;24.50;57.80
11229;DHT22;5671;47.936;8.716;2023-06-22T15:28:53;24.40;59.40
11229;DHT22;5671;47.936;8.716;2023-06-22T15:31:20;24.20;63.10
11229;DHT22;5671;47.936;8.716;2023-06-22T15:33:50;24.10;62.20
11229;DHT22;5671;47.936;8.716;2023-06-22T15:36:17;24.10;62.90
11229;DHT22;5671;47.936;8.716;2023-06-22T15:38:44;24.10;63.60
11229;DHT22;5671;47.936;8.716;2023-06-22T15:41:12;24.30;63.70
11229;DHT22;5671;47.936;8.716;2023-06-22T15:43:40;24.30;61.70
11229;DHT22;5671;47.936;8.716;2023-06-22T15:46:07;24.20;58.60
11229;DHT22;5671;47.936;8.716;2023-06-22T15:48:34;24.10;59.50
11229;DHT22;5671;47.936;8.716;2023-06-22T15:51:00;24.00;60.50